createdAt,value
2019-03-05T00:00:22.635Z,14.67
2019-03-05T00:02:48.945Z,14.65
2019-03-05T00:05:15.284Z,14.62
2019-03-05T00:07:41.596Z,14.60
2019-03-05T00:10:07.899Z,14.58
2019-03-05T00:12:34.212Z,14.57
2019-03-05T00:15:00.519Z,14.53
2019-03-05T00:17:26.842Z,14.49
2019-03-05T00:19:53.140Z,14.48
2019-03-05T00:22:19.487Z,14.45
2019-03-05T00:24:45.803Z,14.42
2019-03-05T00:27:12.123Z,14.42
2019-03-05T00:29:38.436Z,14.41
2019-03-05T00:32:04.747Z,14.40
2019-03-05T00:34:31.101Z,14.37
2019-03-05T00:36:57.410Z,14.35
2019-03-05T00:39:23.719Z,14.33
2019-03-05T00:41:50.037Z,14.30
2019-03-05T00:44:16.352Z,14.29
2019-03-05T00:46:42.675Z,14.27
2019-03-05T00:49:08.991Z,14.25
2019-03-05T00:51:35.296Z,14.24
2019-03-05T00:54:01.626Z,14.21
2019-03-05T00:56:27.933Z,14.19
2019-03-05T00:58:54.341Z,14.16
2019-03-05T01:01:20.582Z,14.13
2019-03-05T01:03:46.892Z,14.12
2019-03-05T01:06:13.208Z,14.09
2019-03-05T01:08:39.523Z,14.07
2019-03-05T01:11:05.837Z,14.05
2019-03-05T01:13:32.153Z,14.02
2019-03-05T01:15:58.463Z,13.99
2019-03-05T01:18:24.791Z,13.96
2019-03-05T01:20:51.100Z,13.94
2019-03-05T01:23:17.409Z,13.93
2019-03-05T01:25:43.730Z,13.90
2019-03-05T01:28:10.044Z,13.88
2019-03-05T01:30:36.358Z,13.85
2019-03-05T01:33:02.670Z,13.80
2019-03-05T01:35:28.977Z,13.79
2019-03-05T01:37:55.286Z,13.78
2019-03-05T01:40:21.658Z,13.76
2019-03-05T01:42:47.901Z,13.76
2019-03-05T01:45:14.212Z,13.72
2019-03-05T01:47:40.515Z,13.72
2019-03-05T01:50:06.826Z,13.69
2019-03-05T01:52:33.134Z,13.66
2019-03-05T01:54:59.436Z,13.67
2019-03-05T01:57:25.743Z,13.65
2019-03-05T01:59:52.065Z,13.61
2019-03-05T02:02:18.364Z,13.61
2019-03-05T02:04:44.675Z,13.60
2019-03-05T02:07:10.992Z,13.57
2019-03-05T02:09:37.292Z,13.56
2019-03-05T02:12:03.611Z,13.55
2019-03-05T02:14:29.916Z,13.53
2019-03-05T02:16:56.225Z,13.52
2019-03-05T02:19:22.537Z,13.52
2019-03-05T02:21:48.852Z,13.50
2019-03-05T02:24:15.198Z,13.47
2019-03-05T02:26:41.478Z,13.46
2019-03-05T02:29:07.783Z,13.45
2019-03-05T02:31:34.132Z,13.42
2019-03-05T02:34:00.442Z,13.41
2019-03-05T02:36:26.742Z,13.41
2019-03-05T02:38:53.063Z,13.40
2019-03-05T02:41:19.374Z,13.38
2019-03-05T02:43:45.679Z,13.31
2019-03-05T02:46:12.101Z,13.22
2019-03-05T02:48:38.296Z,13.15
2019-03-05T02:51:04.607Z,13.11
2019-03-05T02:53:30.920Z,13.07
2019-03-05T02:55:57.227Z,13.06
2019-03-05T02:58:23.542Z,13.05
2019-03-05T03:00:49.846Z,13.01
2019-03-05T03:03:16.177Z,12.96
2019-03-05T03:05:42.482Z,12.92
2019-03-05T03:08:08.955Z,12.89
2019-03-05T03:10:35.116Z,12.86
2019-03-05T03:13:01.429Z,12.84
2019-03-05T03:15:27.739Z,12.81
2019-03-05T03:17:54.044Z,12.80
2019-03-05T03:20:20.362Z,12.78
2019-03-05T03:22:46.662Z,12.75
2019-03-05T03:25:12.968Z,12.73
2019-03-05T03:27:39.283Z,12.70
2019-03-05T03:30:05.622Z,12.68
2019-03-05T03:32:31.893Z,12.66
2019-03-05T03:34:58.206Z,12.66
2019-03-05T03:37:24.517Z,12.65
2019-03-05T03:39:50.824Z,12.62
2019-03-05T03:42:17.131Z,12.59
2019-03-05T03:44:43.441Z,12.59
2019-03-05T03:47:09.749Z,12.54
2019-03-05T03:49:36.054Z,12.54
2019-03-05T03:52:02.367Z,12.52
2019-03-05T03:54:28.680Z,12.52
2019-03-05T03:56:54.986Z,12.51
2019-03-05T03:59:21.304Z,12.51
2019-03-05T04:01:47.610Z,12.51
2019-03-05T04:04:13.919Z,12.48
2019-03-05T04:06:40.225Z,12.48
2019-03-05T04:09:06.540Z,12.45
2019-03-05T04:11:32.856Z,12.43
2019-03-05T04:13:59.833Z,12.43
2019-03-05T04:16:25.470Z,12.39
2019-03-05T04:18:51.789Z,12.38
2019-03-05T04:21:20.027Z,12.37
2019-03-05T04:23:44.406Z,12.36
2019-03-05T04:26:10.712Z,12.31
2019-03-05T04:28:37.025Z,12.32
2019-03-05T04:31:03.332Z,12.31
2019-03-05T04:33:29.637Z,12.31
2019-03-05T04:35:55.955Z,12.30
2019-03-05T04:38:22.260Z,12.28
2019-03-05T04:40:48.577Z,12.28
2019-03-05T04:43:14.880Z,12.27
2019-03-05T04:45:41.193Z,12.27
2019-03-05T04:48:07.507Z,12.24
2019-03-05T04:50:33.819Z,12.21
2019-03-05T04:53:00.129Z,12.22
2019-03-05T04:55:26.440Z,12.20
2019-03-05T04:57:52.753Z,12.19
2019-03-05T05:00:19.076Z,12.18
2019-03-05T05:02:45.393Z,12.17
2019-03-05T05:05:11.699Z,12.19
2019-03-05T05:07:38.012Z,12.20
2019-03-05T05:10:04.324Z,12.20
2019-03-05T05:12:30.637Z,12.21
2019-03-05T05:14:56.947Z,12.22
2019-03-05T05:17:23.257Z,12.24
2019-03-05T05:19:49.568Z,12.26
2019-03-05T05:22:15.875Z,12.27
2019-03-05T05:24:42.190Z,12.30
2019-03-05T05:27:08.503Z,12.34
2019-03-05T05:29:34.888Z,12.40
2019-03-05T05:32:01.203Z,12.46
2019-03-05T05:34:27.506Z,12.56
2019-03-05T05:36:53.812Z,12.62
2019-03-05T05:39:20.121Z,12.68
2019-03-05T05:41:46.444Z,12.72
2019-03-05T05:44:12.749Z,12.75
2019-03-05T05:46:39.064Z,12.76
2019-03-05T05:49:05.369Z,12.80
2019-03-05T05:51:31.683Z,12.85
2019-03-05T05:53:57.993Z,12.91
2019-03-05T05:56:24.299Z,13.53
2019-03-05T05:58:50.930Z,13.88
2019-03-05T06:01:17.249Z,12.88
2019-03-05T06:03:43.569Z,12.27
2019-03-05T06:06:09.876Z,12.00
2019-03-05T06:08:36.234Z,11.80
2019-03-05T06:11:02.545Z,11.32
2019-03-05T06:13:28.858Z,11.00
2019-03-05T06:15:55.253Z,10.91
2019-03-05T06:18:21.699Z,10.97
2019-03-05T06:20:47.972Z,11.14
2019-03-05T06:23:14.319Z,11.34
2019-03-05T06:25:40.636Z,11.65
2019-03-05T06:28:06.936Z,11.89
2019-03-05T06:30:33.252Z,11.99
2019-03-05T06:32:59.611Z,12.04
2019-03-05T06:35:26.032Z,11.99
2019-03-05T06:37:52.469Z,12.11
2019-03-05T06:40:18.800Z,12.21
2019-03-05T06:42:45.242Z,11.94
2019-03-05T06:45:11.578Z,11.77
2019-03-05T06:47:37.890Z,11.68
2019-03-05T06:50:04.218Z,11.67
2019-03-05T06:52:30.543Z,11.99
2019-03-05T06:54:56.891Z,12.43
2019-03-05T06:57:23.273Z,12.43
2019-03-05T06:59:49.837Z,12.35
2019-03-05T07:02:16.157Z,12.25
2019-03-05T07:04:42.466Z,12.62
2019-03-05T07:07:08.772Z,12.93
2019-03-05T07:09:35.082Z,13.12
2019-03-05T07:12:01.394Z,13.30
2019-03-05T07:14:27.702Z,13.27
2019-03-05T07:16:54.017Z,13.31
2019-03-05T07:19:20.337Z,13.58
2019-03-05T07:21:46.701Z,13.84
2019-03-05T07:24:13.021Z,13.77
2019-03-05T07:26:39.330Z,13.76
2019-03-05T07:29:07.497Z,13.83
2019-03-05T07:31:31.992Z,14.01
2019-03-05T07:33:58.546Z,14.08
2019-03-05T07:36:24.890Z,14.15
2019-03-05T07:38:51.166Z,14.39
2019-03-05T07:41:17.478Z,14.57
2019-03-05T07:43:43.826Z,14.80
2019-03-05T07:46:10.148Z,15.03
2019-03-05T07:48:36.459Z,15.32
2019-03-05T07:51:02.806Z,15.67
2019-03-05T07:53:29.245Z,15.97
2019-03-05T07:55:55.559Z,16.27
2019-03-05T07:58:21.871Z,16.38
2019-03-05T08:00:48.184Z,16.55
2019-03-05T08:03:14.517Z,16.67
2019-03-05T08:05:40.831Z,16.77
2019-03-05T08:08:07.143Z,16.74
2019-03-05T08:10:33.461Z,16.95
2019-03-05T08:12:59.825Z,17.10
2019-03-05T08:15:26.135Z,17.28
2019-03-05T08:17:52.445Z,17.33
2019-03-05T08:20:18.894Z,17.41
2019-03-05T08:22:45.207Z,17.38
2019-03-05T08:25:11.567Z,17.32
2019-03-05T08:27:37.878Z,17.37
2019-03-05T08:30:13.774Z,17.57
2019-03-05T08:32:30.512Z,17.78
2019-03-05T08:34:56.934Z,18.03
2019-03-05T08:37:23.161Z,18.28
2019-03-05T08:39:49.477Z,18.47
2019-03-05T08:42:15.791Z,18.66
2019-03-05T08:44:49.980Z,18.77
2019-03-05T08:47:08.445Z,18.80
2019-03-05T08:49:34.778Z,18.79
2019-03-05T08:52:01.126Z,18.82
2019-03-05T08:54:27.439Z,18.93
2019-03-05T08:56:53.769Z,19.08
2019-03-05T08:59:20.078Z,19.26
2019-03-05T09:01:46.397Z,19.41
2019-03-05T09:04:12.707Z,19.64
2019-03-05T09:06:39.069Z,19.83
2019-03-05T09:09:05.385Z,19.89
2019-03-05T09:11:31.710Z,19.91
2019-03-05T09:13:58.028Z,20.14
2019-03-05T09:16:24.344Z,20.34
2019-03-05T09:18:50.672Z,20.54
2019-03-05T09:21:16.987Z,20.74
2019-03-05T09:23:43.298Z,20.92
2019-03-05T09:26:09.619Z,21.12
2019-03-05T09:28:35.938Z,21.29
2019-03-05T09:31:02.254Z,21.46
2019-03-05T09:33:28.577Z,21.64
2019-03-05T09:35:55.164Z,21.81
2019-03-05T09:38:21.435Z,21.83
2019-03-05T09:40:47.767Z,21.83
2019-03-05T09:43:14.109Z,21.90
2019-03-05T09:45:40.440Z,21.99
2019-03-05T09:48:06.731Z,22.10
2019-03-05T09:50:33.049Z,22.17
2019-03-05T09:52:59.359Z,22.28
2019-03-05T09:55:25.720Z,22.44
2019-03-05T09:57:52.056Z,22.54
2019-03-05T10:00:18.934Z,22.52
2019-03-05T10:02:45.257Z,22.57
2019-03-05T10:05:11.586Z,22.63
2019-03-05T10:10:25.092Z,22.90
2019-03-05T10:12:51.422Z,22.98
2019-03-05T10:15:28.705Z,23.01
2019-03-05T10:17:54.122Z,22.91
2019-03-05T10:20:20.447Z,22.88
2019-03-05T10:22:46.750Z,22.90
2019-03-05T10:25:13.087Z,22.89
2019-03-05T10:27:39.364Z,22.91
2019-03-05T10:30:05.670Z,23.02
2019-03-05T10:32:31.979Z,23.17
2019-03-05T10:34:58.288Z,23.16
2019-03-05T10:37:24.592Z,23.20
2019-03-05T10:39:50.917Z,23.22
2019-03-05T10:42:17.216Z,23.19
2019-03-05T10:44:43.528Z,23.27
2019-03-05T10:47:09.835Z,23.20
2019-03-05T10:49:36.140Z,23.15
2019-03-05T10:52:02.449Z,23.09
2019-03-05T10:54:28.764Z,22.97
2019-03-05T10:56:55.071Z,22.83
2019-03-05T10:59:21.386Z,22.56
2019-03-05T11:01:47.707Z,22.40
2019-03-05T11:04:14.019Z,22.13
2019-03-05T11:06:40.325Z,21.85
2019-03-05T11:09:06.644Z,21.82
2019-03-05T11:11:32.951Z,21.76
2019-03-05T11:13:59.275Z,21.61
2019-03-05T11:16:30.669Z,21.43
2019-03-05T11:18:51.920Z,21.25
2019-03-05T11:21:18.229Z,21.10
2019-03-05T11:23:44.537Z,20.97
2019-03-05T11:26:10.843Z,20.92
2019-03-05T11:28:37.207Z,20.94
2019-03-05T11:31:03.597Z,20.94
2019-03-05T11:33:29.907Z,20.82
2019-03-05T11:35:56.215Z,20.70
2019-03-05T11:38:22.528Z,20.56
2019-03-05T11:40:48.853Z,20.42
2019-03-05T11:43:15.163Z,20.27
2019-03-05T11:45:41.479Z,20.14
2019-03-05T11:48:07.789Z,20.04
2019-03-05T11:50:34.104Z,19.97
2019-03-05T11:53:00.416Z,19.94
2019-03-05T11:55:26.770Z,19.88
2019-03-05T11:57:53.075Z,19.81
2019-03-05T12:00:19.421Z,19.84
2019-03-05T12:02:45.754Z,19.81
2019-03-05T12:05:12.066Z,19.78
2019-03-05T12:07:38.418Z,19.78
2019-03-05T12:10:04.729Z,19.75
2019-03-05T12:12:31.040Z,19.70
2019-03-05T12:14:57.376Z,19.66
2019-03-05T12:17:23.689Z,19.60
2019-03-05T12:19:49.995Z,19.59
2019-03-05T12:22:16.329Z,19.58
2019-03-05T12:24:42.632Z,19.56
2019-03-05T12:27:08.943Z,19.53
2019-03-05T12:29:35.268Z,19.51
2019-03-05T12:32:01.572Z,19.53
2019-03-05T12:34:27.875Z,19.49
2019-03-05T12:36:54.194Z,19.45
2019-03-05T12:39:20.503Z,19.43
2019-03-05T12:41:46.816Z,19.38
2019-03-05T12:44:13.128Z,19.34
2019-03-05T12:46:39.442Z,19.35
2019-03-05T12:49:05.750Z,19.35
2019-03-05T12:51:32.078Z,19.31
2019-03-05T12:53:58.396Z,19.28
2019-03-05T12:56:24.710Z,19.27
2019-03-05T12:58:51.029Z,19.20
2019-03-05T13:01:17.332Z,19.22
2019-03-05T13:03:43.641Z,19.22
2019-03-05T13:06:09.947Z,19.22
2019-03-05T13:08:36.257Z,19.22
2019-03-05T13:11:02.563Z,19.19
2019-03-05T13:13:28.874Z,19.19
2019-03-05T13:15:56.470Z,19.14
2019-03-05T13:18:21.499Z,19.08
2019-03-05T13:20:47.814Z,19.04
2019-03-05T13:23:14.130Z,19.02
2019-03-05T13:25:40.444Z,18.95
2019-03-05T13:28:06.749Z,18.92
2019-03-05T13:30:33.102Z,18.89
2019-03-05T13:33:00.766Z,18.86
2019-03-05T13:35:30.395Z,18.83
2019-03-05T13:37:52.026Z,18.81
2019-03-05T13:40:18.329Z,18.78
2019-03-05T13:42:44.658Z,18.74
2019-03-05T13:45:10.973Z,18.75
2019-03-05T13:47:41.528Z,18.75
2019-03-05T13:50:07.771Z,18.76
2019-03-05T13:52:32.170Z,18.74
2019-03-05T13:54:56.226Z,18.75
2019-03-05T13:57:22.583Z,18.73
2019-03-05T13:59:48.894Z,18.70
2019-03-05T14:02:15.199Z,18.65
2019-03-05T14:04:41.509Z,18.62
2019-03-05T14:07:07.824Z,18.59
2019-03-05T14:09:34.160Z,18.56
2019-03-05T14:12:00.456Z,18.54
2019-03-05T14:14:26.758Z,18.53
2019-03-05T14:16:53.060Z,18.51
2019-03-05T14:19:19.405Z,18.47
2019-03-05T14:21:45.706Z,18.43
2019-03-05T14:24:12.039Z,18.41
2019-03-05T14:26:38.331Z,18.41
2019-03-05T14:29:04.662Z,18.41
2019-03-05T14:31:30.957Z,18.41
2019-03-05T14:33:57.271Z,18.39
2019-03-05T14:36:23.576Z,18.37
2019-03-05T14:38:49.886Z,18.35
2019-03-05T14:41:16.234Z,18.34
2019-03-05T14:43:42.582Z,18.30
2019-03-05T14:46:08.867Z,18.28
2019-03-05T14:48:35.195Z,18.27
2019-03-05T14:51:01.501Z,18.26
2019-03-05T14:53:27.797Z,18.24
2019-03-05T14:55:54.630Z,18.21
2019-03-05T14:58:20.443Z,18.19
2019-03-05T15:00:46.754Z,18.17
2019-03-05T15:03:13.082Z,18.18
2019-03-05T15:05:39.386Z,18.17
2019-03-05T15:08:05.714Z,18.13
2019-03-05T15:10:32.034Z,18.11
2019-03-05T15:12:58.319Z,18.14
2019-03-05T15:15:24.701Z,18.11
2019-03-05T15:17:51.000Z,18.10
2019-03-05T15:20:17.500Z,18.08
2019-03-05T15:22:43.820Z,18.04
2019-03-05T15:25:10.138Z,18.00
2019-03-05T15:27:36.461Z,17.98
2019-03-05T15:30:02.818Z,17.96
2019-03-05T15:32:29.144Z,17.92
2019-03-05T15:34:55.449Z,17.87
2019-03-05T15:37:21.768Z,17.84
2019-03-05T15:39:48.135Z,17.80
2019-03-05T15:42:14.564Z,17.75
2019-03-05T15:44:40.733Z,17.71
2019-03-05T15:47:07.068Z,17.71
2019-03-05T15:49:33.434Z,17.68
2019-03-05T15:51:59.714Z,17.66
2019-03-05T15:54:26.014Z,17.63
2019-03-05T15:56:52.345Z,17.60
2019-03-05T15:59:18.669Z,17.61
2019-03-05T16:01:44.988Z,17.56
2019-03-05T16:04:11.281Z,17.62
2019-03-05T16:06:37.650Z,17.62
2019-03-05T16:09:03.957Z,17.62
2019-03-05T16:11:33.955Z,17.61
2019-03-05T16:13:57.946Z,17.61
2019-03-05T16:16:22.919Z,17.59
2019-03-05T16:18:49.227Z,17.55
2019-03-05T16:21:15.544Z,17.55
2019-03-05T16:23:41.856Z,17.54
2019-03-05T16:26:08.165Z,17.49
2019-03-05T16:28:34.497Z,17.44
2019-03-05T16:31:00.796Z,17.46
2019-03-05T16:33:27.107Z,17.45
2019-03-05T16:35:53.489Z,17.40
2019-03-05T16:38:20.154Z,17.38
2019-03-05T16:40:46.053Z,17.36
2019-03-05T16:43:12.361Z,17.33
2019-03-05T16:45:38.717Z,17.30
2019-03-05T16:48:05.055Z,17.25
2019-03-05T16:50:31.362Z,17.25
2019-03-05T16:52:57.683Z,17.22
2019-03-05T16:55:24.019Z,17.10
2019-03-05T16:57:50.315Z,17.11
2019-03-05T17:00:16.643Z,17.16
2019-03-05T17:02:42.968Z,17.13
2019-03-05T17:05:09.278Z,17.12
2019-03-05T17:07:35.585Z,17.86
2019-03-05T17:10:01.898Z,18.25
2019-03-05T17:12:28.233Z,18.48
2019-03-05T17:14:54.544Z,18.57
2019-03-05T17:17:20.856Z,18.54
2019-03-05T17:19:47.160Z,18.45
2019-03-05T17:22:13.488Z,18.33
2019-03-05T17:24:42.282Z,18.24
2019-03-05T17:27:08.600Z,18.16
2019-03-05T17:29:34.902Z,18.09
2019-03-05T17:32:01.204Z,18.04
2019-03-05T17:34:27.569Z,17.99
2019-03-05T17:36:53.877Z,17.96
2019-03-05T17:39:20.187Z,17.93
2019-03-05T17:41:46.501Z,17.90
2019-03-05T17:44:12.829Z,17.87
2019-03-05T17:46:39.178Z,17.83
2019-03-05T17:49:05.488Z,17.83
2019-03-05T17:51:31.788Z,17.81
2019-03-05T17:53:58.847Z,17.79
2019-03-05T17:56:25.153Z,17.77
2019-03-05T17:58:51.471Z,17.75
2019-03-05T18:01:17.775Z,17.73
2019-03-05T18:03:44.086Z,17.73
2019-03-05T18:06:10.403Z,17.79
2019-03-05T18:08:36.723Z,17.79
2019-03-05T18:11:03.028Z,17.70
2019-03-05T18:13:29.399Z,17.74
2019-03-05T18:15:55.706Z,17.71
2019-03-05T18:18:22.016Z,17.68
2019-03-05T18:20:48.330Z,17.65
2019-03-05T18:23:14.692Z,17.63
2019-03-05T18:25:41.007Z,17.59
2019-03-05T18:28:07.319Z,17.59
2019-03-05T18:30:33.629Z,17.57
2019-03-05T18:32:59.983Z,17.54
2019-03-05T18:35:27.349Z,17.50
2019-03-05T18:37:53.671Z,17.51
2019-03-05T18:40:20.017Z,17.48
2019-03-05T18:42:46.368Z,17.46
2019-03-05T18:45:12.683Z,17.46
2019-03-05T18:47:38.986Z,17.45
2019-03-05T18:50:05.294Z,17.42
2019-03-05T18:52:31.595Z,17.42
2019-03-05T18:54:57.910Z,17.41
2019-03-05T18:57:24.219Z,17.39
2019-03-05T18:59:50.617Z,17.37
2019-03-05T19:02:16.972Z,17.52
2019-03-05T19:04:43.278Z,17.59
2019-03-05T19:07:09.605Z,17.57
2019-03-05T19:09:35.911Z,17.52
2019-03-05T19:12:03.148Z,17.49
2019-03-05T19:14:29.459Z,17.45
2019-03-05T19:16:55.828Z,17.41
2019-03-05T19:19:22.138Z,17.39
2019-03-05T19:21:48.969Z,17.36
2019-03-05T19:24:15.282Z,17.34
2019-03-05T19:26:41.593Z,17.33
2019-03-05T19:29:07.903Z,17.31
2019-03-05T19:31:34.217Z,17.30
2019-03-05T19:34:00.528Z,17.29
2019-03-05T19:36:26.839Z,17.27
2019-03-05T19:38:53.162Z,17.26
2019-03-05T19:41:19.473Z,17.25
2019-03-05T19:43:45.833Z,17.22
2019-03-05T19:46:12.151Z,17.22
2019-03-05T19:48:38.463Z,17.20
2019-03-05T19:51:04.769Z,17.20
2019-03-05T19:53:31.097Z,17.18
2019-03-05T19:55:57.409Z,17.22
2019-03-05T19:58:23.724Z,17.36
2019-03-05T20:00:50.066Z,17.63
2019-03-05T20:03:16.378Z,17.65
2019-03-05T20:05:42.685Z,17.59
2019-03-05T20:08:09.001Z,17.51
2019-03-05T20:10:35.360Z,17.44
2019-03-05T20:13:01.675Z,17.37
2019-03-05T20:15:27.989Z,17.33
2019-03-05T20:17:58.878Z,17.28
2019-03-05T20:20:20.616Z,17.26
2019-03-05T20:22:46.933Z,17.23
2019-03-05T20:25:13.251Z,17.19
2019-03-05T20:27:39.570Z,17.17
2019-03-05T20:30:05.887Z,17.16
2019-03-05T20:32:32.209Z,17.13
2019-03-05T20:34:58.541Z,17.10
2019-03-05T20:37:24.859Z,17.10
2019-03-05T20:39:51.167Z,17.09
2019-03-05T20:42:17.493Z,17.07
2019-03-05T20:44:43.912Z,17.05
2019-03-05T20:47:10.461Z,17.05
2019-03-05T20:49:36.770Z,17.03
2019-03-05T20:52:03.110Z,17.02
2019-03-05T20:54:29.429Z,17.01
2019-03-05T20:56:55.741Z,17.00
2019-03-05T20:59:22.081Z,16.99
2019-03-05T21:01:48.395Z,16.94
2019-03-05T21:04:14.718Z,16.96
2019-03-05T21:06:41.033Z,16.95
2019-03-05T21:09:10.166Z,16.80
2019-03-05T21:11:36.522Z,16.92
2019-03-05T21:14:02.875Z,16.88
2019-03-05T21:16:29.153Z,16.88
2019-03-05T21:18:55.475Z,16.86
2019-03-05T21:21:21.782Z,16.84
2019-03-05T21:23:48.093Z,16.81
2019-03-05T21:26:14.416Z,16.78
2019-03-05T21:28:40.730Z,16.74
2019-03-05T21:31:07.040Z,16.72
2019-03-05T21:33:33.358Z,16.69
2019-03-05T21:35:59.668Z,16.66
2019-03-05T21:38:25.993Z,16.63
2019-03-05T21:40:59.744Z,16.60
2019-03-05T21:43:21.548Z,16.58
2019-03-05T21:45:47.873Z,16.56
2019-03-05T21:48:14.271Z,16.54
2019-03-05T21:50:40.594Z,16.51
2019-03-05T21:53:07.043Z,16.49
2019-03-05T21:55:33.396Z,16.47
2019-03-05T21:57:59.678Z,16.46
2019-03-05T22:00:25.991Z,16.44
2019-03-05T22:02:52.300Z,16.43
2019-03-05T22:05:18.611Z,16.41
2019-03-05T22:07:44.924Z,16.39
2019-03-05T22:10:11.294Z,16.37
2019-03-05T22:12:37.605Z,16.37
2019-03-05T22:15:03.924Z,16.35
2019-03-05T22:17:30.244Z,16.33
2019-03-05T22:19:56.616Z,16.30
2019-03-05T22:22:22.929Z,16.29
2019-03-05T22:24:49.320Z,16.29
2019-03-05T22:27:15.634Z,16.28
2019-03-05T22:29:41.946Z,16.27
2019-03-05T22:32:08.256Z,16.25
2019-03-05T22:34:34.575Z,16.21
2019-03-05T22:37:00.886Z,16.22
2019-03-05T22:39:27.200Z,16.20
2019-03-05T22:41:53.503Z,16.19
2019-03-05T22:44:19.810Z,16.17
2019-03-05T22:46:46.122Z,16.15
2019-03-05T22:49:12.434Z,16.14
2019-03-05T22:51:38.757Z,16.13
2019-03-05T22:54:05.067Z,16.11
2019-03-05T22:56:31.388Z,16.10
2019-03-05T22:58:57.739Z,16.08
2019-03-05T23:01:24.069Z,16.07
2019-03-05T23:03:50.469Z,16.06
2019-03-05T23:06:16.784Z,16.05
2019-03-05T23:08:43.098Z,16.03
2019-03-05T23:11:09.415Z,16.01
2019-03-05T23:13:35.730Z,16.00
2019-03-05T23:16:02.040Z,15.98
2019-03-05T23:18:28.356Z,15.96
2019-03-05T23:20:54.673Z,15.93
2019-03-05T23:23:20.985Z,15.95
2019-03-05T23:25:47.299Z,15.93
2019-03-05T23:28:13.736Z,15.92
2019-03-05T23:30:40.046Z,15.90
2019-03-05T23:33:06.371Z,15.87
2019-03-05T23:35:32.689Z,15.85
2019-03-05T23:37:59.002Z,15.84
2019-03-05T23:40:25.309Z,15.83
2019-03-05T23:42:51.627Z,15.80
2019-03-05T23:45:17.940Z,15.79
2019-03-05T23:47:44.252Z,15.77
2019-03-05T23:50:10.562Z,15.76
2019-03-05T23:52:36.877Z,15.74
2019-03-05T23:55:03.214Z,15.73
2019-03-05T23:57:29.523Z,15.72
2019-03-05T23:59:55.838Z,15.71
